Thursday, July 24, 2014
06:23 UTC
  |  Log In   |  Register Free
Airport Search:

Lewis University Airport
(KLOT)

Lewis University Airport Diagram
No Airport Diagram Available

FAA data valid effective May 29, 2014 until July 24, 2014 (unless otherwise noted).

 
 
 
 
 
 
 
 
 
 
 
 
 
 

Current Aviation Weather for Lewis University Airport (KLOT)

The most recent METAR observation for KLOT was updated at: 0535 UTC
METAR Summary (Translated METAR)
KLOT
240535Z AUTO 02006KT 10SM CLR 14/10 A3014 RMK AO2 T01420101 TSNO
KJOT
(6.4 nm SW from KLOT)
240530Z AUTO 01004KT 10SM CLR 15/09 A3015 RMK AO2 T01470093
TAF Summary (Translated TAF)
KMDW
(18.8 nm NE from KLOT)
240524Z 2406/2506 01007KT P6SM SKC FM241500 05009KT P6SM SCT040 FM250100 11004KT P6SM SCT200
  Airport Weather Conditions for KLOT

 Current Weather at LOT
58° F
Fair
North winds at 6.9 mph
LOT NOAA Radar

Pressure: 30.14 in
Humidity: 77%
Wind: North at 6.9 MPH (6 KT)
Dew Point: 50.2°F
Visibility: 10.00 mi


Airport Weather Forecast for KLOT

Translated METAR and TAF for KLOT
Translated METAR for KLOT (0616 UTC 24 July 2014)
found at http://aviationweather.gov/adds/metars/
 
METAR text: KLOT 240535Z AUTO 02006KT 10SM CLR 14/10 A3014 RMK AO2 T01420101 TSNO
Conditions at: KLOT (ROMEOVILLE/CHI , IL, US) observed 0535 UTC 24 July 2014
Temperature: 14.2°C (58°F)
Dewpoint: 10.1°C (50°F) [RH = 76%]
Pressure (altimeter): 30.14 inches Hg (1020.7 mb)
Winds: from the NNE (20 degrees) at 7 MPH (6 knots; 3.1 m/s)
Visibility: 10 or more miles (16+ km)
Ceiling: at least 12,000 feet AGL
Clouds: sky clear below 12,000 feet AGL
Weather: automated observation with no human augmentation;
there may or may not be significant weather present at this time
Translated TAF for KLOT

There is no translated TAF available for this airport

Find All Airport Services Find A Hotel Find A Rental Car Find A Golf Course Find A Restaurant $100 Hamburger



FBO's on the Field
FBO Company Facility Photos Services Transportation Aviation Fuel Prices: Prices include tax
Catering Weather Repair Courtesy Rental Type 100LL JetA JetA+ MOGAS 8087
 
Lewis University Airport

This FBO has not yet been rated
FS:Phillips66
Last Updated: Jul-02
Login to update fuel prices
SS:
Contact Lewis University AirportMore FBO Information
 
Add another FBO Facility Photos Catering Weather Repair Courtesy Rental Type 100LL JetA JetA+ MOGAS 8087
Services Transportation Aviation Fuel Prices: Prices include tax


GlobalAir.com Airport Resource Center model-print
model-print
model-print
model-print